Time;durP1;ratioP1;P1;durP2;ratioP2;P2;SDS_P1;SDS_P2;PMS_P1;PMS_P2;Temp;Humidity;BMP_temperature;BMP_pressure;BME280_temperature;BME280_humidity;BME280_pressure;Samples;Min_cycle;Max_cycle;Signal;HPM_P1;HPM_P2
2023/01/29 00:02:04;;;;;;;20.02;13.65;;;6.80;1.00;;;;;;5070999;28;20069;-62
2023/01/29 00:04:30;;;;;;;18.52;13.18;;;7.30;1.00;;;;;;5054262;28;20060;-62
2023/01/29 00:06:56;;;;;;;20.90;14.25;;;7.30;1.00;;;;;;5068552;28;20161;-62
2023/01/29 00:09:22;;;;;;;24.33;14.85;;;7.00;1.00;;;;;;5073980;28;20044;-62
2023/01/29 00:11:47;;;;;;;22.27;14.95;;;6.90;1.00;;;;;;5053256;28;20052;-62
2023/01/29 00:14:13;;;;;;;19.27;14.13;;;6.90;1.00;;;;;;5053988;28;20075;-62
2023/01/29 00:16:39;;;;;;;21.52;14.75;;;6.90;1.00;;;;;;5075843;28;20097;-62
2023/01/29 00:19:04;;;;;;;18.02;15.05;;;7.20;1.00;;;;;;5066031;28;20037;-62
2023/01/29 00:21:31;;;;;;;20.75;13.75;;;7.60;1.00;;;;;;5052917;28;20048;-62
2023/01/29 00:23:57;;;;;;;20.52;14.45;;;7.20;1.00;;;;;;5067765;28;20055;-62
2023/01/29 00:26:22;;;;;;;18.10;14.45;;;7.30;1.00;;;;;;5044694;28;20410;-62
2023/01/29 00:28:48;;;;;;;22.40;13.93;;;7.00;1.00;;;;;;5058141;28;20047;-62
2023/01/29 00:31:16;;;;;;;19.60;13.77;;;7.00;1.00;;;;;;5053929;28;20036;-62
2023/01/29 00:33:42;;;;;;;18.70;13.38;;;7.50;1.00;;;;;;5073783;28;20036;-63
2023/01/29 00:36:10;;;;;;;16.48;13.15;;;7.30;1.00;;;;;;5065622;28;20075;-62
2023/01/29 00:38:37;;;;;;;17.92;13.43;;;7.20;1.00;;;;;;5054267;28;20037;-62
2023/01/29 00:46:43;;;;;;;12.43;10.00;;;7.50;1.00;;;;;;5064915;28;20472;-62
2023/01/29 00:49:09;;;;;;;15.93;11.55;;;7.30;1.00;;;;;;5057739;28;20040;-62
2023/01/29 00:51:36;;;;;;;14.60;9.95;;;7.60;1.00;;;;;;5052174;28;20041;-62
2023/01/29 00:54:03;;;;;;;13.60;10.27;;;7.50;1.00;;;;;;5051747;28;20407;-62
2023/01/29 00:56:29;;;;;;;17.42;10.55;;;7.60;1.00;;;;;;5061322;28;20406;-62
2023/01/29 00:58:55;;;;;;;14.45;9.10;;;7.30;1.00;;;;;;5061602;28;20086;-63
2023/01/29 01:04:08;;;;;;;11.48;9.80;;;7.40;1.00;;;;;;5068393;28;20132;-62
2023/01/29 01:06:36;;;;;;;15.52;9.98;;;7.70;1.00;;;;;;5062591;28;20116;-62
2023/01/29 01:11:46;;;;;;;15.77;8.50;;;7.70;1.00;;;;;;5068646;28;20506;-62
2023/01/29 01:14:11;;;;;;;15.13;8.65;;;7.40;1.00;;;;;;5052974;28;20041;-63
2023/01/29 01:16:37;;;;;;;9.50;8.35;;;7.60;1.00;;;;;;5062415;28;20041;-62
2023/01/29 01:19:03;;;;;;;10.70;7.90;;;7.50;1.00;;;;;;5063399;28;20131;-62
2023/01/29 01:21:28;;;;;;;10.70;8.75;;;7.60;1.00;;;;;;5063290;28;20024;-63
2023/01/29 01:23:54;;;;;;;12.52;9.15;;;7.70;1.00;;;;;;5068712;28;20037;-62
2023/01/29 01:26:19;;;;;;;15.10;9.85;;;7.50;1.00;;;;;;5059927;28;20041;-62
2023/01/29 01:28:45;;;;;;;13.60;9.43;;;7.70;99.90;;;;;;5058736;28;20032;-62
2023/01/29 01:31:12;;;;;;;11.75;8.65;;;7.60;99.90;;;;;;5050687;28;20037;-62
2023/01/29 01:33:39;;;;;;;10.45;9.20;;;7.40;99.90;;;;;;5053672;28;20045;-62
2023/01/29 01:36:10;;;;;;;15.68;9.73;;;7.40;99.90;;;;;;5046133;28;20413;-62
2023/01/29 01:38:43;;;;;;;12.32;8.75;;;7.60;99.90;;;;;;5050547;28;20044;-62
2023/01/29 01:41:12;;;;;;;11.48;9.02;;;7.50;99.90;;;;;;5052007;28;20037;-62
2023/01/29 01:43:49;;;;;;;11.93;9.13;;;7.60;99.90;;;;;;5059503;28;20116;-62
2023/01/29 01:46:15;;;;;;;11.85;9.23;;;7.60;99.90;;;;;;5071237;28;20040;-62
2023/01/29 01:48:42;;;;;;;11.10;9.13;;;7.60;99.90;;;;;;5059447;28;20047;-62
2023/01/29 01:51:08;;;;;;;12.27;9.85;;;7.70;99.90;;;;;;5055648;28;20029;-63
2023/01/29 01:53:38;;;;;;;13.38;9.27;;;7.70;99.90;;;;;;5066980;28;20036;-63
2023/01/29 01:56:26;;;;;;;12.48;9.20;;;7.50;99.90;;;;;;5050882;28;20128;-63
2023/01/29 01:58:57;;;;;;;11.38;9.40;;;7.40;99.90;;;;;;5056066;28;20033;-62
2023/01/29 02:01:26;;;;;;;11.20;9.30;;;7.40;99.90;;;;;;5056021;28;20056;-62
2023/01/29 02:09:45;;;;;;;14.95;9.57;;;7.70;99.90;;;;;;5067119;28;20045;-62
2023/01/29 02:12:12;;;;;;;18.10;9.55;;;7.70;99.90;;;;;;5050611;28;20049;-62
2023/01/29 02:14:39;;;;;;;13.77;9.77;;;7.70;99.90;;;;;;5051916;28;20072;-62
2023/01/29 02:17:07;;;;;;;10.90;9.70;;;7.70;99.90;;;;;;5051027;28;20687;-62
2023/01/29 02:19:47;;;;;;;12.05;9.65;;;9.30;99.90;;;;;;5041305;28;20037;-62
2023/01/29 02:22:28;;;;;;;13.00;9.65;;;7.50;99.90;;;;;;5030614;28;20051;-62
2023/01/29 02:25:34;;;;;;;10.57;9.50;;;7.80;99.90;;;;;;5030908;28;20487;-63
2023/01/29 02:28:20;;;;;;;12.13;9.80;;;7.50;99.90;;;;;;5031956;28;20502;-64
2023/01/29 02:31:12;;;;;;;15.57;10.57;;;7.70;99.90;;;;;;5050330;28;20106;-62
2023/01/29 02:33:51;;;;;;;13.80;9.60;;;7.70;99.90;;;;;;5050689;28;20044;-62
2023/01/29 02:36:33;;;;;;;11.55;9.77;;;7.60;99.90;;;;;;5051604;28;20037;-62
2023/01/29 02:39:16;;;;;;;13.02;9.70;;;7.50;99.90;;;;;;5037214;28;20041;-63
2023/01/29 02:41:51;;;;;;;13.45;10.57;;;7.70;99.90;;;;;;5051600;28;20044;-62
2023/01/29 02:44:42;;;;;;;14.45;10.20;;;7.50;99.90;;;;;;5062303;28;20124;-62
2023/01/29 02:47:33;;;;;;;13.38;8.32;;;7.70;99.90;;;;;;5055229;28;20072;-62
2023/01/29 02:50:02;;;;;;;13.82;9.68;;;7.40;99.90;;;;;;5054661;28;20056;-62
2023/01/29 02:52:48;;;;;;;14.85;10.02;;;7.40;99.90;;;;;;5053953;28;20517;-62
2023/01/29 02:55:22;;;;;;;17.83;9.10;;;7.60;99.90;;;;;;5070736;28;20471;-62
2023/01/29 02:57:53;;;;;;;14.38;9.73;;;7.40;99.90;;;;;;5053670;28;20037;-62
2023/01/29 03:00:23;;;;;;;17.08;9.05;;;7.40;99.90;;;;;;5048623;28;20051;-62
2023/01/29 03:02:59;;;;;;;11.50;7.85;;;7.60;99.90;;;;;;5051554;28;20514;-62
2023/01/29 03:05:33;;;;;;;15.63;8.15;;;7.60;99.90;;;;;;5050883;28;20071;-62
2023/01/29 03:08:05;;;;;;;13.68;8.75;;;7.30;99.90;;;;;;5066962;28;20057;-62
2023/01/29 03:10:39;;;;;;;14.98;9.20;;;6.90;99.90;;;;;;5058173;28;20468;-62
2023/01/29 03:13:17;;;;;;;17.45;8.65;;;6.90;99.90;;;;;;5051616;28;20043;-62
2023/01/29 03:15:47;;;;;;;10.35;8.30;;;7.00;99.90;;;;;;5057102;28;20037;-62
2023/01/29 03:18:26;;;;;;;13.65;9.80;;;7.00;99.90;;;;;;5064058;28;20203;-62
2023/01/29 03:20:57;;;;;;;11.65;9.43;;;7.50;99.90;;;;;;5071193;28;20063;-62
2023/01/29 03:32:07;;;;;;;14.75;11.50;;;6.90;99.90;;;;;;5060901;28;20052;-63
2023/01/29 03:34:42;;;;;;;14.57;12.18;;;7.40;99.90;;;;;;5069317;28;20037;-62
2023/01/29 03:37:19;;;;;;;18.10;11.82;;;7.50;99.90;;;;;;5052926;28;20041;-62
2023/01/29 03:39:45;;;;;;;12.35;11.00;;;7.30;99.90;;;;;;5050760;28;20549;-62
2023/01/29 03:42:33;;;;;;;12.70;11.40;;;7.50;99.90;;;;;;5062080;28;20044;-62
2023/01/29 03:45:17;;;;;;;14.32;11.25;;;7.00;99.90;;;;;;5035932;28;20055;-62
2023/01/29 03:47:46;;;;;;;15.55;11.18;;;6.70;99.90;;;;;;5056493;28;20041;-63
2023/01/29 03:50:20;;;;;;;12.55;10.85;;;6.90;99.90;;;;;;5050681;28;20041;-62
2023/01/29 03:53:07;;;;;;;14.27;10.88;;;7.10;99.90;;;;;;5066401;28;20106;-62
2023/01/29 03:56:04;;;;;;;13.52;11.07;;;7.30;99.90;;;;;;5058765;28;20037;-62
2023/01/29 03:58:38;;;;;;;15.83;10.70;;;7.30;99.90;;;;;;5050617;28;20509;-62
2023/01/29 04:01:15;;;;;;;12.50;10.20;;;7.50;99.90;;;;;;5039002;28;20725;-62
2023/01/29 04:04:03;;;;;;;17.63;11.20;;;7.20;99.90;;;;;;5050969;28;20047;-62
2023/01/29 04:06:33;;;;;;;13.30;10.80;;;7.20;99.90;;;;;;5054261;28;20491;-62
2023/01/29 04:09:03;;;;;;;14.98;10.73;;;6.90;99.90;;;;;;5087132;28;20041;-62
2023/01/29 04:11:30;;;;;;;14.52;11.30;;;6.90;99.90;;;;;;5050563;28;20521;-62
2023/01/29 04:13:57;;;;;;;14.05;12.05;;;6.90;99.90;;;;;;5069136;28;20082;-63
2023/01/29 04:16:32;;;;;;;17.27;10.82;;;7.10;99.90;;;;;;5059592;28;20033;-62
2023/01/29 04:18:58;;;;;;;17.58;12.15;;;7.30;99.90;;;;;;5051554;28;20037;-62
2023/01/29 04:21:24;;;;;;;13.35;11.95;;;7.10;99.90;;;;;;5054028;28;20037;-62
2023/01/29 04:23:49;;;;;;;13.32;11.23;;;7.40;99.90;;;;;;5053937;28;20040;-62
2023/01/29 04:26:27;;;;;;;13.75;11.15;;;7.00;99.90;;;;;;5054776;28;20041;-62
2023/01/29 04:29:21;;;;;;;13.82;10.20;;;6.90;99.90;;;;;;5069752;28;20045;-62
2023/01/29 04:31:54;;;;;;;13.85;10.82;;;7.10;99.90;;;;;;5069148;28;20079;-63
2023/01/29 04:34:28;;;;;;;13.05;11.63;;;7.10;99.90;;;;;;5034112;28;20099;-62
2023/01/29 04:37:34;;;;;;;14.15;11.32;;;7.30;99.90;;;;;;5051508;28;20037;-62
2023/01/29 04:40:20;;;;;;;13.27;10.73;;;7.50;99.90;;;;;;5073619;28;20072;-62
2023/01/29 04:43:13;;;;;;;20.13;12.75;;;7.30;89.70;;;;;;5069182;28;20033;-62
2023/01/29 04:45:55;;;;;;;14.93;12.98;;;7.30;67.90;;;;;;5053231;28;20033;-62
2023/01/29 04:48:31;;;;;;;16.90;14.07;;;7.10;42.60;;;;;;5059185;28;20033;-63
2023/01/29 04:51:23;;;;;;;20.83;15.23;;;7.40;66.00;;;;;;5068898;28;20044;-63
2023/01/29 04:54:17;;;;;;;19.48;15.52;;;7.20;98.10;;;;;;5053519;28;20045;-62
2023/01/29 04:56:50;;;;;;;17.42;15.27;;;7.30;99.90;;;;;;5055189;28;20048;-62
2023/01/29 04:59:23;;;;;;;17.15;15.35;;;7.20;99.90;;;;;;5039093;28;20509;-62
2023/01/29 05:01:49;;;;;;;18.25;14.68;;;7.50;99.90;;;;;;5046855;28;20037;-62
2023/01/29 05:04:19;;;;;;;18.17;14.63;;;7.60;99.90;;;;;;5053261;28;20384;-62
2023/01/29 05:06:48;;;;;;;18.63;13.68;;;7.30;99.90;;;;;;5065928;28;20101;-62
2023/01/29 05:09:15;;;;;;;19.27;13.95;;;7.30;99.90;;;;;;5054451;28;20522;-62
2023/01/29 05:11:42;;;;;;;20.25;15.45;;;7.70;99.90;;;;;;5068366;28;20107;-62
2023/01/29 05:14:12;;;;;;;19.15;14.68;;;7.60;99.90;;;;;;5067543;28;20056;-62
2023/01/29 05:16:46;;;;;;;19.55;14.90;;;7.70;99.90;;;;;;5051975;28;20517;-62
2023/01/29 05:19:14;;;;;;;18.95;15.05;;;7.80;99.90;;;;;;5050555;28;20041;-62
2023/01/29 05:21:43;;;;;;;23.73;14.82;;;7.80;99.90;;;;;;5052306;28;20025;-62
2023/01/29 05:24:15;;;;;;;18.75;14.77;;;7.80;99.90;;;;;;5052702;28;20659;-62
2023/01/29 05:29:27;;;;;;;19.58;15.32;;;7.20;99.90;;;;;;5056688;28;20095;-62
2023/01/29 05:31:52;;;;;;;20.85;17.63;;;6.90;99.90;;;;;;5071117;28;20068;-62
2023/01/29 05:34:18;;;;;;;19.55;17.23;;;7.30;99.90;;;;;;5072615;28;20040;-62
2023/01/29 05:36:44;;;;;;;24.25;19.02;;;7.70;1.00;;;;;;5063730;28;20040;-62
2023/01/29 05:39:09;;;;;;;31.40;19.80;;;6.90;1.00;;;;;;5061675;28;20134;-62
2023/01/29 05:41:35;;;;;;;30.20;20.83;;;6.90;1.00;;;;;;5051108;28;20033;-62
2023/01/29 05:44:00;;;;;;;24.52;20.02;;;7.60;1.00;;;;;;5056242;28;20127;-62
2023/01/29 05:46:26;;;;;;;22.83;18.17;;;7.50;1.00;;;;;;5053712;28;20123;-62
2023/01/29 05:48:52;;;;;;;30.42;19.80;;;6.70;1.00;;;;;;5059017;28;20044;-62
2023/01/29 05:51:17;;;;;;;27.98;19.52;;;6.60;1.00;;;;;;5067706;28;20044;-62
2023/01/29 05:53:43;;;;;;;23.02;18.85;;;7.50;1.00;;;;;;5052143;28;20040;-62
2023/01/29 05:56:08;;;;;;;28.27;21.02;;;7.50;45.10;;;;;;5067342;28;20085;-62
2023/01/29 05:58:34;;;;;;;26.88;21.58;;;7.60;99.90;;;;;;5060417;28;20029;-62
2023/01/29 06:01:18;;;;;;;29.50;20.10;;;7.60;99.90;;;;;;5067749;28;20024;-62
2023/01/29 06:03:44;;;;;;;27.92;20.77;;;7.20;99.90;;;;;;5071807;28;20055;-62
2023/01/29 06:06:09;;;;;;;29.48;21.40;;;6.80;99.90;;;;;;5071368;28;20376;-62
2023/01/29 06:08:35;;;;;;;29.00;22.00;;;6.60;99.90;;;;;;5068460;28;20139;-62
2023/01/29 06:11:01;;;;;;;27.63;20.63;;;6.50;99.90;;;;;;5052248;28;20128;-62
2023/01/29 06:13:27;;;;;;;31.65;23.40;;;6.90;99.90;;;;;;5067514;28;20469;-62
2023/01/29 06:15:52;;;;;;;25.88;20.58;;;6.50;99.90;;;;;;5051122;28;20041;-62
2023/01/29 06:18:18;;;;;;;27.67;21.10;;;6.70;99.90;;;;;;5070356;28;20451;-62
2023/01/29 06:20:43;;;;;;;28.38;21.77;;;7.00;1.00;;;;;;5071545;28;20060;-62
2023/01/29 06:23:09;;;;;;;24.65;19.95;;;6.80;1.00;;;;;;5071288;28;20039;-62
2023/01/29 06:25:34;;;;;;;23.38;18.73;;;6.50;99.90;;;;;;5057543;28;20045;-62
2023/01/29 06:28:00;;;;;;;25.08;18.38;;;6.70;99.90;;;;;;5052262;28;20112;-62
2023/01/29 06:30:27;;;;;;;26.40;18.60;;;6.40;99.90;;;;;;5051477;28;20036;-62
2023/01/29 06:32:57;;;;;;;26.83;18.00;;;7.30;1.00;;;;;;5075083;28;20116;-62
2023/01/29 06:35:23;;;;;;;27.27;17.95;;;6.60;1.00;;;;;;5070207;28;20395;-62
2023/01/29 06:37:49;;;;;;;26.08;19.33;;;7.60;2.30;;;;;;5057728;28;20402;-62
2023/01/29 06:40:15;;;;;;;26.85;19.77;;;7.70;69.00;;;;;;5051232;28;20048;-62
2023/01/29 06:42:40;;;;;;;28.40;18.48;;;7.40;75.50;;;;;;5068532;28;20097;-62
2023/01/29 06:45:06;;;;;;;24.23;16.77;;;7.50;36.20;;;;;;5071412;28;20045;-62
2023/01/29 06:47:32;;;;;;;22.08;16.25;;;7.50;38.00;;;;;;5069712;28;20482;-62
2023/01/29 06:49:57;;;;;;;26.23;16.73;;;6.90;65.10;;;;;;5066777;28;20037;-62
2023/01/29 06:52:27;;;;;;;22.42;17.00;;;7.60;99.90;;;;;;5050336;28;20037;-62
2023/01/29 06:54:53;;;;;;;26.20;18.08;;;7.20;99.90;;;;;;5049791;28;20136;-62
2023/01/29 06:57:19;;;;;;;26.40;19.15;;;7.30;99.90;;;;;;5051356;28;20044;-62
2023/01/29 06:59:45;;;;;;;32.88;23.33;;;6.80;99.90;;;;;;5054907;28;20037;-62
2023/01/29 07:02:10;;;;;;;29.60;22.58;;;6.80;99.90;;;;;;5050104;28;20094;-62
2023/01/29 07:04:36;;;;;;;36.08;24.13;;;7.60;99.90;;;;;;5052144;28;20039;-62
2023/01/29 07:07:02;;;;;;;42.40;29.77;;;7.40;99.90;;;;;;5066120;28;20059;-62
2023/01/29 07:09:28;;;;;;;41.13;28.88;;;6.50;99.90;;;;;;5060659;28;20049;-62
2023/01/29 07:11:53;;;;;;;40.20;29.80;;;7.30;99.90;;;;;;5061429;28;20044;-62
2023/01/29 07:14:19;;;;;;;40.78;30.20;;;6.60;1.00;;;;;;5070701;28;20032;-62
2023/01/29 07:16:44;;;;;;;43.90;32.05;;;7.80;74.80;;;;;;5069213;28;20040;-62
2023/01/29 07:19:10;;;;;;;40.60;30.10;;;7.80;99.90;;;;;;5055044;28;20076;-62
2023/01/29 07:21:36;;;;;;;39.78;29.13;;;7.60;99.90;;;;;;5050910;28;20048;-62
2023/01/29 07:24:02;;;;;;;33.63;26.13;;;7.70;99.90;;;;;;5050470;28;20029;-62
2023/01/29 07:26:27;;;;;;;40.58;28.63;;;6.80;99.90;;;;;;5050994;28;20052;-62
2023/01/29 07:28:53;;;;;;;32.08;24.92;;;6.90;99.90;;;;;;5053808;28;20415;-62
2023/01/29 07:31:19;;;;;;;32.65;23.80;;;6.30;99.90;;;;;;5065108;28;20044;-62
2023/01/29 07:33:45;;;;;;;38.85;26.90;;;6.70;99.90;;;;;;5055233;28;20049;-62
2023/01/29 07:36:11;;;;;;;46.25;29.30;;;6.60;1.00;;;;;;5061382;28;20045;-62
2023/01/29 07:38:36;;;;;;;45.45;28.10;;;6.70;1.00;;;;;;5062995;28;20485;-62
2023/01/29 07:41:02;;;;;;;40.55;28.00;;;7.30;49.60;;;;;;5062343;28;20033;-62
2023/01/29 07:43:29;;;;;;;39.38;27.08;;;7.90;4.30;;;;;;5057161;28;20451;-63
2023/01/29 07:45:54;;;;;;;38.55;27.58;;;6.70;1.00;;;;;;5071638;28;20037;-62
2023/01/29 07:48:20;;;;;;;35.47;25.63;;;6.50;1.00;;;;;;5070798;28;20056;-62
2023/01/29 07:50:54;;;;;;;36.28;25.80;;;7.20;1.00;;;;;;5053976;28;20037;-62
2023/01/29 07:53:19;;;;;;;36.10;25.42;;;7.40;1.00;;;;;;5052848;28;20055;-62
2023/01/29 07:55:45;;;;;;;32.92;24.92;;;7.00;90.10;;;;;;5057954;28;20493;-62
2023/01/29 07:58:11;;;;;;;36.10;25.15;;;7.00;99.90;;;;;;5069499;28;20041;-63
2023/01/29 08:00:37;;;;;;;37.17;25.92;;;7.90;99.90;;;;;;5060289;28;20035;-62
2023/01/29 08:03:05;;;;;;;34.42;25.38;;;6.80;99.90;;;;;;5065201;28;20470;-63
2023/01/29 08:05:31;;;;;;;34.63;26.52;;;8.00;1.00;;;;;;5050396;28;20040;-62
2023/01/29 08:07:57;;;;;;;32.03;25.50;;;7.00;1.00;;;;;;5053138;28;20486;-62
2023/01/29 08:10:23;;;;;;;26.88;20.45;;;7.70;99.90;;;;;;5053563;28;20499;-62
2023/01/29 08:13:00;;;;;;;33.17;22.48;;;7.50;99.90;;;;;;5051242;28;20044;-62
2023/01/29 08:15:26;;;;;;;30.15;20.50;;;6.60;99.90;;;;;;5052228;28;20085;-62
2023/01/29 08:17:52;;;;;;;31.33;22.95;;;6.40;59.10;;;;;;5071625;28;20049;-62
2023/01/29 08:20:18;;;;;;;28.20;20.70;;;7.10;99.90;;;;;;5054485;28;20064;-62
2023/01/29 08:22:44;;;;;;;26.38;19.52;;;6.80;99.90;;;;;;5053120;28;20090;-62
2023/01/29 08:25:10;;;;;;;27.38;19.90;;;7.90;99.90;;;;;;5059476;28;20481;-62
2023/01/29 08:27:35;;;;;;;26.95;18.35;;;7.30;99.90;;;;;;5053011;28;20041;-62
2023/01/29 08:30:01;;;;;;;25.23;18.52;;;7.80;99.90;;;;;;5055146;28;20482;-62
2023/01/29 08:32:26;;;;;;;30.73;19.45;;;7.50;99.90;;;;;;5053692;28;20501;-62
2023/01/29 08:34:52;;;;;;;31.25;19.08;;;7.60;73.20;;;;;;5048670;28;20029;-62
2023/01/29 08:37:17;;;;;;;30.20;20.88;;;6.50;12.30;;;;;;5072610;28;20053;-62
2023/01/29 08:39:43;;;;;;;30.05;19.42;;;6.90;99.90;;;;;;5060889;28;20037;-62
2023/01/29 08:42:09;;;;;;;23.50;17.65;;;7.50;99.90;;;;;;5053997;28;20036;-62
2023/01/29 08:44:34;;;;;;;24.33;17.77;;;6.90;1.00;;;;;;5052492;28;20052;-62
2023/01/29 08:47:00;;;;;;;25.20;18.55;;;6.80;1.00;;;;;;5063525;28;20139;-62
2023/01/29 08:49:25;;;;;;;30.00;17.55;;;7.40;99.90;;;;;;5054347;28;20036;-62
2023/01/29 08:51:52;;;;;;;30.90;19.80;;;7.60;99.90;;;;;;5051863;28;20033;-62
2023/01/29 08:54:18;;;;;;;27.88;18.15;;;7.60;1.00;;;;;;5053103;28;20040;-62
2023/01/29 08:56:44;;;;;;;26.75;18.08;;;7.60;1.00;;;;;;5052524;28;20043;-62
2023/01/29 08:59:10;;;;;;;33.83;19.75;;;6.50;99.90;;;;;;5043953;28;20033;-63
2023/01/29 09:01:35;;;;;;;36.90;22.33;;;8.00;1.00;;;;;;5044164;28;20049;-63
2023/01/29 09:04:01;;;;;;;31.42;21.58;;;7.70;83.10;;;;;;5059654;28;20165;-63
2023/01/29 09:06:26;;;;;;;27.55;18.80;;;7.80;99.90;;;;;;5051157;28;20119;-62
2023/01/29 09:08:52;;;;;;;29.10;21.10;;;6.60;99.90;;;;;;5058563;28;20120;-62
2023/01/29 09:11:18;;;;;;;27.38;19.88;;;8.10;99.90;;;;;;5066623;28;20044;-62
2023/01/29 09:13:43;;;;;;;33.17;21.45;;;6.30;99.90;;;;;;5052275;28;20041;-62
2023/01/29 09:16:09;;;;;;;30.27;20.40;;;7.10;99.90;;;;;;5072150;28;20113;-62
2023/01/29 09:18:35;;;;;;;34.47;21.30;;;6.90;1.00;;;;;;5054502;28;20029;-62
2023/01/29 09:21:01;;;;;;;28.73;18.52;;;6.90;1.00;;;;;;5052962;28;20044;-63
2023/01/29 09:23:27;;;;;;;28.50;19.13;;;7.90;99.90;;;;;;5055320;28;20033;-62
2023/01/29 09:25:53;;;;;;;32.42;18.95;;;6.60;1.00;;;;;;5054229;28;20512;-62
2023/01/29 09:28:19;;;;;;;27.77;18.23;;;6.70;99.90;;;;;;5056164;28;20131;-62
2023/01/29 09:30:44;;;;;;;32.08;14.90;;;7.10;1.00;;;;;;5059624;28;20112;-62
2023/01/29 09:33:10;;;;;;;25.20;15.30;;;8.60;99.90;;;;;;5057406;28;20381;-62
2023/01/29 09:35:38;;;;;;;28.98;16.52;;;7.80;99.90;;;;;;5049146;28;20136;-62
2023/01/29 09:38:04;;;;;;;28.38;15.95;;;7.00;1.00;;;;;;5058987;28;20044;-62
2023/01/29 09:40:47;;;;;;;25.63;14.25;;;7.80;1.00;;;;;;5061581;28;20411;-62
2023/01/29 09:43:17;;;;;;;30.70;15.48;;;6.60;1.00;;;;;;5055311;28;20056;-62
2023/01/29 09:46:05;;;;;;;21.92;12.90;;;6.70;1.00;;;;;;5057067;28;20072;-62
2023/01/29 09:48:34;;;;;;;23.65;12.63;;;7.50;1.00;;;;;;5043670;28;20059;-62
2023/01/29 09:51:04;;;;;;;22.20;14.50;;;7.70;20.40;;;;;;5052345;28;20090;-62
2023/01/29 09:53:38;;;;;;;24.45;13.95;;;6.80;99.90;;;;;;5053618;28;20402;-62
2023/01/29 09:56:05;;;;;;;23.58;14.75;;;6.90;98.40;;;;;;5050696;28;20041;-62
2023/01/29 09:58:34;;;;;;;21.15;12.63;;;7.00;99.90;;;;;;5063905;28;20045;-63
2023/01/29 10:01:22;;;;;;;24.63;13.90;;;7.90;99.90;;;;;;5038653;28;20418;-62
2023/01/29 10:04:11;;;;;;;30.08;15.70;;;8.00;99.90;;;;;;5067700;28;20094;-62
2023/01/29 10:06:58;;;;;;;22.65;14.10;;;7.10;99.90;;;;;;5074224;28;20053;-63
2023/01/29 10:09:49;;;;;;;24.17;14.98;;;7.10;99.90;;;;;;5063422;28;20045;-62
2023/01/29 10:12:35;;;;;;;23.00;13.73;;;8.90;99.90;;;;;;5060403;28;20075;-64
2023/01/29 10:15:19;;;;;;;27.25;16.02;;;8.40;99.90;;;;;;5050351;28;20040;-63
2023/01/29 10:18:02;;;;;;;22.02;12.10;;;6.90;99.90;;;;;;5053616;28;20479;-62
2023/01/29 10:20:28;;;;;;;21.55;11.73;;;7.70;99.90;;;;;;5047667;28;20142;-63
2023/01/29 10:23:03;;;;;;;28.67;13.27;;;8.50;99.90;;;;;;5070374;28;20075;-63
2023/01/29 10:25:31;;;;;;;20.20;12.10;;;8.20;99.90;;;;;;5037689;28;20378;-62
2023/01/29 10:27:58;;;;;;;23.42;13.93;;;6.50;99.90;;;;;;5041890;28;20037;-63
2023/01/29 10:30:39;;;;;;;18.33;12.07;;;7.90;99.90;;;;;;5049049;28;20045;-63
2023/01/29 10:33:11;;;;;;;17.67;10.55;;;9.00;99.90;;;;;;5054780;28;20438;-62
2023/01/29 10:35:42;;;;;;;20.67;10.45;;;7.30;99.90;;;;;;5083436;28;20127;-63
2023/01/29 10:38:32;;;;;;;21.60;13.43;;;8.10;99.90;;;;;;5048791;28;20179;-63
2023/01/29 10:41:23;;;;;;;19.20;11.98;;;7.70;99.90;;;;;;5044960;28;20043;-63
2023/01/29 10:44:18;;;;;;;18.70;12.07;;;7.20;99.90;;;;;;5045604;28;20123;-63
2023/01/29 10:47:17;;;;;;;22.25;11.82;;;8.20;99.90;;;;;;5049952;28;20053;-63
2023/01/29 10:50:07;;;;;;;24.67;13.18;;;6.30;99.90;;;;;;5060330;28;20115;-64
2023/01/29 10:52:55;;;;;;;22.60;12.52;;;7.80;99.90;;;;;;5071052;28;20098;-63
2023/01/29 10:55:53;;;;;;;25.52;14.10;;;8.20;99.90;;;;;;5047708;28;20509;-63
2023/01/29 10:58:47;;;;;;;25.02;12.75;;;7.30;99.90;;;;;;5047319;28;20041;-63
2023/01/29 11:01:13;;;;;;;21.50;14.05;;;7.20;99.90;;;;;;5043031;28;20045;-63
2023/01/29 11:03:39;;;;;;;20.27;11.70;;;8.50;99.90;;;;;;5047133;28;20033;-63
2023/01/29 11:06:12;;;;;;;25.40;12.93;;;7.30;99.90;;;;;;5049382;28;20048;-63
2023/01/29 11:09:00;;;;;;;23.10;11.80;;;9.10;99.90;;;;;;5054441;28;20499;-63
2023/01/29 11:11:47;;;;;;;27.25;13.52;;;7.70;99.90;;;;;;5060210;28;20490;-63
2023/01/29 11:14:20;;;;;;;17.98;10.05;;;8.90;99.90;;;;;;5055361;28;20053;-63
2023/01/29 11:16:47;;;;;;;485.73;37.70;;;8.50;99.90;;;;;;5050040;28;20553;-63
2023/01/29 11:19:13;;;;;;;21.17;10.38;;;8.20;99.90;;;;;;5049676;28;20123;-63
2023/01/29 11:22:00;;;;;;;24.95;10.82;;;7.30;99.90;;;;;;5051553;28;20045;-63
2023/01/29 11:24:26;;;;;;;19.60;10.63;;;9.00;99.90;;;;;;5082579;28;20045;-63
2023/01/29 11:26:56;;;;;;;19.85;9.80;;;8.00;99.90;;;;;;5055410;28;20051;-63
2023/01/29 11:29:43;;;;;;;14.75;8.60;;;7.10;99.90;;;;;;5058937;28;20383;-63
2023/01/29 11:32:21;;;;;;;17.42;9.65;;;8.70;99.90;;;;;;5049500;28;20143;-65
2023/01/29 11:35:03;;;;;;;17.70;9.98;;;7.30;99.90;;;;;;5066323;28;20498;-63
2023/01/29 11:37:35;;;;;;;23.70;10.65;;;8.50;99.90;;;;;;5052672;28;20053;-63
2023/01/29 11:40:22;;;;;;;17.63;10.95;;;8.40;99.90;;;;;;5058479;28;20045;-64
2023/01/29 11:42:48;;;;;;;20.55;11.02;;;7.10;99.90;;;;;;5041878;28;20041;-63
2023/01/29 11:45:31;;;;;;;20.48;11.07;;;6.70;99.90;;;;;;5048458;28;20501;-64
2023/01/29 11:47:57;;;;;;;24.67;11.85;;;8.30;99.90;;;;;;5051155;28;20486;-64
2023/01/29 11:50:31;;;;;;;23.08;11.07;;;8.00;99.90;;;;;;5052923;28;20087;-63
2023/01/29 11:53:00;;;;;;;29.55;13.35;;;7.90;99.90;;;;;;5073053;28;20045;-63
2023/01/29 11:55:29;;;;;;;26.58;12.18;;;7.70;99.90;;;;;;5051648;28;20170;-63
2023/01/29 11:58:14;;;;;;;29.23;13.95;;;9.50;99.90;;;;;;5051044;28;20069;-61
2023/01/29 12:00:45;;;;;;;21.20;10.40;;;9.40;99.90;;;;;;5045538;28;20029;-62
2023/01/29 12:03:33;;;;;;;23.90;11.45;;;9.20;99.90;;;;;;5065596;28;20416;-62
2023/01/29 12:08:57;;;;;;;22.10;9.52;;;9.00;99.90;;;;;;5082757;27;20398;-63
2023/01/29 12:11:32;;;;;;;24.02;10.18;;;7.00;99.90;;;;;;5083157;28;20512;-64
2023/01/29 12:14:00;;;;;;;25.65;10.38;;;7.10;99.90;;;;;;5066054;28;20547;-65
2023/01/29 12:16:37;;;;;;;22.35;9.80;;;6.90;99.90;;;;;;5060010;28;20037;-64
2023/01/29 12:19:30;;;;;;;19.55;9.60;;;8.60;99.90;;;;;;5053185;28;20418;-64
2023/01/29 12:22:22;;;;;;;20.63;8.93;;;7.00;99.90;;;;;;5067494;28;20048;-64
2023/01/29 12:24:53;;;;;;;18.45;7.90;;;6.40;99.90;;;;;;5054717;28;20056;-64
2023/01/29 12:27:26;;;;;;;27.02;9.23;;;6.80;99.90;;;;;;5060593;28;20503;-60
2023/01/29 12:30:13;;;;;;;20.13;9.30;;;6.70;99.90;;;;;;5056181;28;20041;-64
2023/01/29 12:32:54;;;;;;;165.73;17.60;;;9.00;99.90;;;;;;5057480;28;20033;-63
2023/01/29 12:35:29;;;;;;;23.92;8.15;;;9.10;99.90;;;;;;5089119;28;20039;-63
2023/01/29 12:38:16;;;;;;;27.00;9.90;;;7.30;99.90;;;;;;5076673;28;20470;-63
2023/01/29 12:40:47;;;;;;;21.08;7.75;;;9.70;99.90;;;;;;5051825;28;20465;-64
2023/01/29 12:43:16;;;;;;;18.75;7.30;;;9.50;99.90;;;;;;5059562;28;20037;-64
2023/01/29 12:45:45;;;;;;;16.98;7.00;;;7.10;99.90;;;;;;5065175;28;20036;-64
2023/01/29 12:48:15;;;;;;;16.88;6.82;;;6.90;99.90;;;;;;5055483;28;20033;-64
2023/01/29 12:50:40;;;;;;;16.25;6.32;;;8.30;99.90;;;;;;5057425;28;20116;-64
2023/01/29 12:53:09;;;;;;;17.10;6.25;;;8.50;99.90;;;;;;5061043;28;20120;-65
2023/01/29 12:55:47;;;;;;;15.13;6.28;;;9.30;99.90;;;;;;5064178;28;20040;-64
2023/01/29 12:58:28;;;;;;;13.93;5.70;;;9.10;99.90;;;;;;5056476;28;20071;-64
2023/01/29 13:00:56;;;;;;;17.17;5.78;;;7.40;99.90;;;;;;5055916;28;20072;-64
2023/01/29 13:03:28;;;;;;;15.10;5.53;;;8.90;99.90;;;;;;5050970;28;20533;-64
2023/01/29 13:06:04;;;;;;;14.73;5.13;;;6.90;99.90;;;;;;5055388;28;20072;-65
2023/01/29 13:08:40;;;;;;;19.40;5.40;;;7.00;99.90;;;;;;5045017;28;20081;-64
2023/01/29 13:11:23;;;;;;;21.40;6.38;;;8.00;99.90;;;;;;5035328;28;20985;-65
2023/01/29 13:13:53;;;;;;;466.75;30.48;;;7.10;99.90;;;;;;5026240;28;20049;-63
2023/01/29 13:16:23;;;;;;;12.05;4.40;;;7.50;99.90;;;;;;5055403;28;20100;-63
2023/01/29 13:18:51;;;;;;;16.48;4.20;;;10.00;99.90;;;;;;5044847;28;20045;-64
2023/01/29 13:21:20;;;;;;;18.83;4.55;;;7.90;99.90;;;;;;5032124;28;20045;-65
2023/01/29 13:23:50;;;;;;;14.80;4.30;;;7.60;99.90;;;;;;5026764;28;20443;-64
2023/01/29 13:26:20;;;;;;;11.05;3.53;;;8.40;99.90;;;;;;5037038;28;20041;-64
2023/01/29 13:28:46;;;;;;;15.65;4.10;;;7.50;99.90;;;;;;5035188;28;20042;-64
2023/01/29 13:31:36;;;;;;;15.73;4.47;;;9.40;99.90;;;;;;5013205;28;20515;-64
2023/01/29 13:34:31;;;;;;;14.13;4.32;;;7.40;99.90;;;;;;5030870;28;20073;-65
2023/01/29 13:37:01;;;;;;;16.20;3.85;;;8.90;99.90;;;;;;5030636;28;20052;-65